sensor_id;sensor_type;location;lat;lon;timestamp;temperature;humidity
326;DHT22;150;52.352;14.058;2022-07-30T00:00:47;21.60;19.20
326;DHT22;150;52.352;14.058;2022-07-30T00:03:14;21.60;19.30
326;DHT22;150;52.352;14.058;2022-07-30T00:05:41;21.60;19.60
326;DHT22;150;52.352;14.058;2022-07-30T00:08:08;21.50;19.40
326;DHT22;150;52.352;14.058;2022-07-30T00:10:34;21.50;19.70
326;DHT22;150;52.352;14.058;2022-07-30T00:13:02;21.40;19.10
326;DHT22;150;52.352;14.058;2022-07-30T00:15:29;21.40;19.50
326;DHT22;150;52.352;14.058;2022-07-30T00:17:56;21.40;19.80
326;DHT22;150;52.352;14.058;2022-07-30T00:20:23;21.40;19.40
326;DHT22;150;52.352;14.058;2022-07-30T00:22:49;21.40;19.50
326;DHT22;150;52.352;14.058;2022-07-30T00:25:16;21.40;19.50
326;DHT22;150;52.352;14.058;2022-07-30T00:27:43;21.30;19.30
326;DHT22;150;52.352;14.058;2022-07-30T00:30:12;21.30;19.20
326;DHT22;150;52.352;14.058;2022-07-30T00:32:39;21.20;19.30
326;DHT22;150;52.352;14.058;2022-07-30T00:35:07;21.20;19.20
326;DHT22;150;52.352;14.058;2022-07-30T00:37:34;21.10;19.60
326;DHT22;150;52.352;14.058;2022-07-30T00:40:00;21.00;19.90
326;DHT22;150;52.352;14.058;2022-07-30T00:42:36;21.00;19.80
326;DHT22;150;52.352;14.058;2022-07-30T00:45:04;21.00;20.00
326;DHT22;150;52.352;14.058;2022-07-30T00:47:32;21.00;20.10
326;DHT22;150;52.352;14.058;2022-07-30T00:49:59;20.90;20.00
326;DHT22;150;52.352;14.058;2022-07-30T00:52:28;20.90;20.10
326;DHT22;150;52.352;14.058;2022-07-30T00:54:55;20.90;19.80
326;DHT22;150;52.352;14.058;2022-07-30T00:57:22;20.80;20.10
326;DHT22;150;52.352;14.058;2022-07-30T00:59:48;20.70;20.20
326;DHT22;150;52.352;14.058;2022-07-30T01:02:15;20.60;20.30
326;DHT22;150;52.352;14.058;2022-07-30T01:04:43;20.60;20.70
326;DHT22;150;52.352;14.058;2022-07-30T01:07:10;20.50;20.80
326;DHT22;150;52.352;14.058;2022-07-30T01:09:37;20.40;20.80
326;DHT22;150;52.352;14.058;2022-07-30T01:12:04;20.40;21.10
326;DHT22;150;52.352;14.058;2022-07-30T01:14:31;20.40;21.20
326;DHT22;150;52.352;14.058;2022-07-30T01:16:59;20.40;21.30
326;DHT22;150;52.352;14.058;2022-07-30T01:19:30;20.30;21.20
326;DHT22;150;52.352;14.058;2022-07-30T01:22:21;20.20;21.50
326;DHT22;150;52.352;14.058;2022-07-30T01:24:55;20.10;21.60
326;DHT22;150;52.352;14.058;2022-07-30T01:27:26;20.20;21.70
326;DHT22;150;52.352;14.058;2022-07-30T01:29:54;20.20;21.70
326;DHT22;150;52.352;14.058;2022-07-30T01:32:22;20.20;21.70
326;DHT22;150;52.352;14.058;2022-07-30T01:34:51;20.20;21.70
326;DHT22;150;52.352;14.058;2022-07-30T01:37:19;20.20;21.70
326;DHT22;150;52.352;14.058;2022-07-30T01:39:47;20.20;21.70
326;DHT22;150;52.352;14.058;2022-07-30T01:42:15;20.10;21.70
326;DHT22;150;52.352;14.058;2022-07-30T01:44:44;20.00;21.60
326;DHT22;150;52.352;14.058;2022-07-30T01:47:13;19.90;21.50
326;DHT22;150;52.352;14.058;2022-07-30T01:49:41;19.90;21.80
326;DHT22;150;52.352;14.058;2022-07-30T01:52:09;19.80;22.60
326;DHT22;150;52.352;14.058;2022-07-30T01:54:38;19.70;22.30
326;DHT22;150;52.352;14.058;2022-07-30T01:57:06;19.60;22.50
326;DHT22;150;52.352;14.058;2022-07-30T01:59:35;19.60;22.70
326;DHT22;150;52.352;14.058;2022-07-30T02:02:05;19.60;22.60
326;DHT22;150;52.352;14.058;2022-07-30T02:04:33;19.60;22.50
326;DHT22;150;52.352;14.058;2022-07-30T02:07:02;19.60;22.80
326;DHT22;150;52.352;14.058;2022-07-30T02:09:33;19.60;22.70
326;DHT22;150;52.352;14.058;2022-07-30T02:12:02;19.60;22.80
326;DHT22;150;52.352;14.058;2022-07-30T02:14:51;19.60;22.90
326;DHT22;150;52.352;14.058;2022-07-30T02:17:23;19.70;22.90
326;DHT22;150;52.352;14.058;2022-07-30T02:19:53;19.70;22.90
326;DHT22;150;52.352;14.058;2022-07-30T02:22:23;19.70;22.90
326;DHT22;150;52.352;14.058;2022-07-30T02:24:51;19.60;23.00
326;DHT22;150;52.352;14.058;2022-07-30T02:27:22;19.60;23.10
326;DHT22;150;52.352;14.058;2022-07-30T02:29:51;19.60;23.00
326;DHT22;150;52.352;14.058;2022-07-30T02:32:22;19.60;23.30
326;DHT22;150;52.352;14.058;2022-07-30T02:34:53;19.60;23.10
326;DHT22;150;52.352;14.058;2022-07-30T02:37:21;19.70;23.20
326;DHT22;150;52.352;14.058;2022-07-30T02:39:50;19.60;23.20
326;DHT22;150;52.352;14.058;2022-07-30T02:42:18;19.60;23.30
326;DHT22;150;52.352;14.058;2022-07-30T02:44:47;19.60;23.60
326;DHT22;150;52.352;14.058;2022-07-30T02:47:16;19.60;24.10
326;DHT22;150;52.352;14.058;2022-07-30T02:49:46;19.50;23.40
326;DHT22;150;52.352;14.058;2022-07-30T02:52:15;19.50;23.60
326;DHT22;150;52.352;14.058;2022-07-30T02:54:42;19.60;23.70
326;DHT22;150;52.352;14.058;2022-07-30T02:57:10;19.60;23.80
326;DHT22;150;52.352;14.058;2022-07-30T02:59:39;19.50;23.60
326;DHT22;150;52.352;14.058;2022-07-30T03:02:07;19.50;23.90
326;DHT22;150;52.352;14.058;2022-07-30T03:04:35;19.40;23.90
326;DHT22;150;52.352;14.058;2022-07-30T03:07:05;19.40;24.10
326;DHT22;150;52.352;14.058;2022-07-30T03:09:32;19.40;23.90
326;DHT22;150;52.352;14.058;2022-07-30T03:12:00;19.50;24.00
326;DHT22;150;52.352;14.058;2022-07-30T03:14:28;19.50;23.90
326;DHT22;150;52.352;14.058;2022-07-30T03:16:57;19.50;23.90
326;DHT22;150;52.352;14.058;2022-07-30T03:19:28;19.40;23.70
326;DHT22;150;52.352;14.058;2022-07-30T03:21:57;19.30;24.10
326;DHT22;150;52.352;14.058;2022-07-30T03:24:28;19.30;24.40
326;DHT22;150;52.352;14.058;2022-07-30T03:26:57;19.40;24.40
326;DHT22;150;52.352;14.058;2022-07-30T03:29:26;19.30;24.40
326;DHT22;150;52.352;14.058;2022-07-30T03:31:53;19.40;24.30
326;DHT22;150;52.352;14.058;2022-07-30T03:34:20;19.30;24.40
326;DHT22;150;52.352;14.058;2022-07-30T03:36:48;19.40;24.60
326;DHT22;150;52.352;14.058;2022-07-30T03:39:16;19.40;24.40
326;DHT22;150;52.352;14.058;2022-07-30T03:41:45;19.40;24.40
326;DHT22;150;52.352;14.058;2022-07-30T03:44:13;19.40;24.40
326;DHT22;150;52.352;14.058;2022-07-30T03:46:41;19.40;24.50
326;DHT22;150;52.352;14.058;2022-07-30T03:49:08;19.40;24.60
326;DHT22;150;52.352;14.058;2022-07-30T03:51:36;19.40;24.60
326;DHT22;150;52.352;14.058;2022-07-30T03:54:03;19.40;24.80
326;DHT22;150;52.352;14.058;2022-07-30T03:56:34;19.40;24.50
326;DHT22;150;52.352;14.058;2022-07-30T03:59:02;19.50;24.30
326;DHT22;150;52.352;14.058;2022-07-30T04:01:29;19.50;24.90
326;DHT22;150;52.352;14.058;2022-07-30T04:04:03;19.50;24.60
326;DHT22;150;52.352;14.058;2022-07-30T04:06:30;19.50;24.60
326;DHT22;150;52.352;14.058;2022-07-30T04:08:56;19.60;24.60
326;DHT22;150;52.352;14.058;2022-07-30T04:11:23;19.50;24.50
326;DHT22;150;52.352;14.058;2022-07-30T04:13:50;19.50;24.70
326;DHT22;150;52.352;14.058;2022-07-30T04:16:22;19.40;24.90
326;DHT22;150;52.352;14.058;2022-07-30T04:18:52;19.30;24.90
326;DHT22;150;52.352;14.058;2022-07-30T04:21:22;19.30;25.20
326;DHT22;150;52.352;14.058;2022-07-30T04:23:50;19.20;25.50
326;DHT22;150;52.352;14.058;2022-07-30T04:26:17;19.20;25.60
326;DHT22;150;52.352;14.058;2022-07-30T04:28:45;19.20;25.80
326;DHT22;150;52.352;14.058;2022-07-30T04:31:12;19.20;25.90
326;DHT22;150;52.352;14.058;2022-07-30T04:33:44;19.20;25.90
326;DHT22;150;52.352;14.058;2022-07-30T04:36:10;19.20;26.00
326;DHT22;150;52.352;14.058;2022-07-30T04:38:37;19.20;25.80
326;DHT22;150;52.352;14.058;2022-07-30T04:41:04;19.10;26.30
326;DHT22;150;52.352;14.058;2022-07-30T04:43:30;19.10;26.40
326;DHT22;150;52.352;14.058;2022-07-30T04:45:57;19.10;26.20
326;DHT22;150;52.352;14.058;2022-07-30T04:48:24;19.20;26.10
326;DHT22;150;52.352;14.058;2022-07-30T04:50:56;19.20;26.20
326;DHT22;150;52.352;14.058;2022-07-30T04:53:25;19.20;26.20
326;DHT22;150;52.352;14.058;2022-07-30T04:55:53;19.30;26.50
326;DHT22;150;52.352;14.058;2022-07-30T04:58:21;19.20;26.30
326;DHT22;150;52.352;14.058;2022-07-30T05:00:50;19.30;26.60
326;DHT22;150;52.352;14.058;2022-07-30T05:03:17;19.40;26.60
326;DHT22;150;52.352;14.058;2022-07-30T05:05:45;19.40;26.60
326;DHT22;150;52.352;14.058;2022-07-30T05:08:13;19.30;26.70
326;DHT22;150;52.352;14.058;2022-07-30T05:10:41;19.30;26.80
326;DHT22;150;52.352;14.058;2022-07-30T05:13:10;19.30;27.10
326;DHT22;150;52.352;14.058;2022-07-30T05:15:37;19.30;27.10
326;DHT22;150;52.352;14.058;2022-07-30T05:18:03;19.40;27.40
326;DHT22;150;52.352;14.058;2022-07-30T05:20:30;19.50;27.30
326;DHT22;150;52.352;14.058;2022-07-30T05:22:57;19.50;27.30
326;DHT22;150;52.352;14.058;2022-07-30T05:25:25;19.50;27.10
326;DHT22;150;52.352;14.058;2022-07-30T05:27:52;19.40;27.50
326;DHT22;150;52.352;14.058;2022-07-30T05:30:19;19.40;27.60
326;DHT22;150;52.352;14.058;2022-07-30T05:32:45;19.30;27.70
326;DHT22;150;52.352;14.058;2022-07-30T05:35:12;19.40;28.20
326;DHT22;150;52.352;14.058;2022-07-30T05:37:39;19.40;28.30
326;DHT22;150;52.352;14.058;2022-07-30T05:40:06;19.50;27.80
326;DHT22;150;52.352;14.058;2022-07-30T05:42:35;19.50;27.70
326;DHT22;150;52.352;14.058;2022-07-30T05:45:01;19.50;27.90
326;DHT22;150;52.352;14.058;2022-07-30T05:47:28;19.50;27.80
326;DHT22;150;52.352;14.058;2022-07-30T05:49:55;19.60;27.90
326;DHT22;150;52.352;14.058;2022-07-30T05:52:21;19.60;28.10
326;DHT22;150;52.352;14.058;2022-07-30T05:54:48;19.50;27.90
326;DHT22;150;52.352;14.058;2022-07-30T05:57:14;19.50;28.20
326;DHT22;150;52.352;14.058;2022-07-30T05:59:42;19.50;28.50
326;DHT22;150;52.352;14.058;2022-07-30T06:02:11;19.60;28.50
326;DHT22;150;52.352;14.058;2022-07-30T06:04:37;19.60;28.10
326;DHT22;150;52.352;14.058;2022-07-30T06:07:04;19.70;28.10
326;DHT22;150;52.352;14.058;2022-07-30T06:09:31;19.70;28.30
326;DHT22;150;52.352;14.058;2022-07-30T06:11:57;19.70;28.40
326;DHT22;150;52.352;14.058;2022-07-30T06:14:24;19.70;28.70
326;DHT22;150;52.352;14.058;2022-07-30T06:16:52;19.60;28.50
326;DHT22;150;52.352;14.058;2022-07-30T06:19:19;19.60;28.70
326;DHT22;150;52.352;14.058;2022-07-30T06:21:45;19.70;29.40
326;DHT22;150;52.352;14.058;2022-07-30T06:24:12;19.60;28.90
326;DHT22;150;52.352;14.058;2022-07-30T06:26:38;19.50;29.10
326;DHT22;150;52.352;14.058;2022-07-30T06:29:06;19.60;28.90
326;DHT22;150;52.352;14.058;2022-07-30T06:31:33;19.70;29.00
326;DHT22;150;52.352;14.058;2022-07-30T06:34:01;19.70;28.70
326;DHT22;150;52.352;14.058;2022-07-30T06:36:27;19.70;29.00
326;DHT22;150;52.352;14.058;2022-07-30T06:38:55;19.80;29.10
326;DHT22;150;52.352;14.058;2022-07-30T06:41:21;19.90;29.10
326;DHT22;150;52.352;14.058;2022-07-30T06:43:48;19.90;28.70
326;DHT22;150;52.352;14.058;2022-07-30T06:46:15;20.00;28.70
326;DHT22;150;52.352;14.058;2022-07-30T06:48:42;19.90;28.70
326;DHT22;150;52.352;14.058;2022-07-30T06:51:10;19.80;29.00
326;DHT22;150;52.352;14.058;2022-07-30T06:53:37;19.80;29.30
326;DHT22;150;52.352;14.058;2022-07-30T06:56:03;19.90;29.30
326;DHT22;150;52.352;14.058;2022-07-30T06:58:30;20.00;28.90
326;DHT22;150;52.352;14.058;2022-07-30T07:00:57;20.10;28.80
326;DHT22;150;52.352;14.058;2022-07-30T07:03:23;20.10;28.70
326;DHT22;150;52.352;14.058;2022-07-30T07:05:51;20.20;28.70
326;DHT22;150;52.352;14.058;2022-07-30T07:08:19;20.10;28.60
326;DHT22;150;52.352;14.058;2022-07-30T07:10:46;20.30;29.00
326;DHT22;150;52.352;14.058;2022-07-30T07:13:13;20.50;28.40
326;DHT22;150;52.352;14.058;2022-07-30T07:15:40;20.50;28.60
326;DHT22;150;52.352;14.058;2022-07-30T07:18:07;20.70;28.80
326;DHT22;150;52.352;14.058;2022-07-30T07:20:33;20.70;27.50
326;DHT22;150;52.352;14.058;2022-07-30T07:23:00;20.60;27.50
326;DHT22;150;52.352;14.058;2022-07-30T07:25:28;20.70;28.00
326;DHT22;150;52.352;14.058;2022-07-30T07:27:55;20.70;27.60
326;DHT22;150;52.352;14.058;2022-07-30T07:30:22;20.70;27.70
326;DHT22;150;52.352;14.058;2022-07-30T07:32:48;20.70;27.80
326;DHT22;150;52.352;14.058;2022-07-30T07:35:16;20.80;27.30
326;DHT22;150;52.352;14.058;2022-07-30T07:37:42;20.90;27.50
326;DHT22;150;52.352;14.058;2022-07-30T07:40:10;20.90;27.00
326;DHT22;150;52.352;14.058;2022-07-30T07:42:38;21.00;27.10
326;DHT22;150;52.352;14.058;2022-07-30T07:45:06;21.20;27.00
326;DHT22;150;52.352;14.058;2022-07-30T07:47:42;21.40;26.90
326;DHT22;150;52.352;14.058;2022-07-30T07:50:09;21.50;26.40
326;DHT22;150;52.352;14.058;2022-07-30T07:52:35;21.60;26.30
326;DHT22;150;52.352;14.058;2022-07-30T07:55:02;21.70;26.10
326;DHT22;150;52.352;14.058;2022-07-30T07:57:29;21.80;25.50
326;DHT22;150;52.352;14.058;2022-07-30T07:59:57;21.80;25.90
326;DHT22;150;52.352;14.058;2022-07-30T08:02:23;22.00;24.90
326;DHT22;150;52.352;14.058;2022-07-30T08:04:50;22.00;25.30
326;DHT22;150;52.352;14.058;2022-07-30T08:07:17;22.10;25.30
326;DHT22;150;52.352;14.058;2022-07-30T08:09:44;22.00;24.70
326;DHT22;150;52.352;14.058;2022-07-30T08:12:10;22.00;24.80
326;DHT22;150;52.352;14.058;2022-07-30T08:14:37;22.10;24.80
326;DHT22;150;52.352;14.058;2022-07-30T08:17:05;22.00;24.60
326;DHT22;150;52.352;14.058;2022-07-30T08:19:32;22.10;24.10
326;DHT22;150;52.352;14.058;2022-07-30T08:21:58;22.10;24.10
326;DHT22;150;52.352;14.058;2022-07-30T08:24:25;22.10;24.70
326;DHT22;150;52.352;14.058;2022-07-30T08:26:52;22.10;24.60
326;DHT22;150;52.352;14.058;2022-07-30T08:29:18;22.20;24.70
326;DHT22;150;52.352;14.058;2022-07-30T08:31:45;22.30;24.20
326;DHT22;150;52.352;14.058;2022-07-30T08:34:13;22.30;23.90
326;DHT22;150;52.352;14.058;2022-07-30T08:36:40;22.20;24.40
326;DHT22;150;52.352;14.058;2022-07-30T08:39:06;22.30;24.30
326;DHT22;150;52.352;14.058;2022-07-30T08:41:35;22.40;24.80
326;DHT22;150;52.352;14.058;2022-07-30T08:44:02;22.40;23.70
326;DHT22;150;52.352;14.058;2022-07-30T08:46:30;22.50;23.30
326;DHT22;150;52.352;14.058;2022-07-30T08:48:59;22.50;23.90
326;DHT22;150;52.352;14.058;2022-07-30T08:51:27;22.40;23.20
326;DHT22;150;52.352;14.058;2022-07-30T08:53:54;22.30;23.50
326;DHT22;150;52.352;14.058;2022-07-30T08:56:22;22.20;23.60
326;DHT22;150;52.352;14.058;2022-07-30T08:58:49;22.10;23.90
326;DHT22;150;52.352;14.058;2022-07-30T09:01:16;22.20;24.40
326;DHT22;150;52.352;14.058;2022-07-30T09:03:43;22.20;24.30
326;DHT22;150;52.352;14.058;2022-07-30T09:06:10;22.40;24.70
326;DHT22;150;52.352;14.058;2022-07-30T09:08:38;22.50;24.70
326;DHT22;150;52.352;14.058;2022-07-30T09:11:05;22.40;23.60
326;DHT22;150;52.352;14.058;2022-07-30T09:13:33;22.70;24.20
326;DHT22;150;52.352;14.058;2022-07-30T09:16:01;22.70;22.90
326;DHT22;150;52.352;14.058;2022-07-30T09:18:30;22.90;23.60
326;DHT22;150;52.352;14.058;2022-07-30T09:20:59;23.00;23.60
326;DHT22;150;52.352;14.058;2022-07-30T09:23:26;23.20;22.70
326;DHT22;150;52.352;14.058;2022-07-30T09:25:54;23.30;23.00
326;DHT22;150;52.352;14.058;2022-07-30T09:28:30;23.40;23.30
326;DHT22;150;52.352;14.058;2022-07-30T09:30:59;23.40;22.90
326;DHT22;150;52.352;14.058;2022-07-30T09:33:34;23.40;21.90
326;DHT22;150;52.352;14.058;2022-07-30T09:36:01;23.30;22.40
326;DHT22;150;52.352;14.058;2022-07-30T09:38:28;23.20;22.40
326;DHT22;150;52.352;14.058;2022-07-30T09:40:57;23.10;22.90
326;DHT22;150;52.352;14.058;2022-07-30T09:43:25;23.10;22.10
326;DHT22;150;52.352;14.058;2022-07-30T09:45:53;23.10;22.40
326;DHT22;150;52.352;14.058;2022-07-30T09:48:24;23.30;23.10
326;DHT22;150;52.352;14.058;2022-07-30T09:50:51;23.40;22.70
326;DHT22;150;52.352;14.058;2022-07-30T09:53:19;23.50;22.50
326;DHT22;150;52.352;14.058;2022-07-30T09:55:48;23.60;22.50
326;DHT22;150;52.352;14.058;2022-07-30T09:58:16;23.80;22.00
326;DHT22;150;52.352;14.058;2022-07-30T10:00:42;23.80;21.80
326;DHT22;150;52.352;14.058;2022-07-30T10:03:18;23.80;21.60
326;DHT22;150;52.352;14.058;2022-07-30T10:05:53;23.70;21.70
326;DHT22;150;52.352;14.058;2022-07-30T10:08:20;23.80;21.50
326;DHT22;150;52.352;14.058;2022-07-30T10:11:03;23.90;21.80
326;DHT22;150;52.352;14.058;2022-07-30T10:13:31;24.10;21.80
326;DHT22;150;52.352;14.058;2022-07-30T10:15:59;24.20;21.10
326;DHT22;150;52.352;14.058;2022-07-30T10:18:26;24.20;21.10
326;DHT22;150;52.352;14.058;2022-07-30T10:20:53;24.30;21.30
326;DHT22;150;52.352;14.058;2022-07-30T10:23:20;24.40;20.70
326;DHT22;150;52.352;14.058;2022-07-30T10:25:49;24.50;21.10
326;DHT22;150;52.352;14.058;2022-07-30T10:28:16;24.70;21.00
326;DHT22;150;52.352;14.058;2022-07-30T10:30:48;24.70;20.30
326;DHT22;150;52.352;14.058;2022-07-30T10:33:14;24.70;19.90
326;DHT22;150;52.352;14.058;2022-07-30T10:35:41;24.70;20.40
326;DHT22;150;52.352;14.058;2022-07-30T10:38:10;24.60;19.80
326;DHT22;150;52.352;14.058;2022-07-30T10:40:41;24.70;20.80
326;DHT22;150;52.352;14.058;2022-07-30T10:43:27;24.70;20.00
326;DHT22;150;52.352;14.058;2022-07-30T10:46:10;24.70;19.90
326;DHT22;150;52.352;14.058;2022-07-30T10:48:38;24.90;19.50
326;DHT22;150;52.352;14.058;2022-07-30T10:51:05;24.70;20.20
326;DHT22;150;52.352;14.058;2022-07-30T10:53:33;24.70;19.90
326;DHT22;150;52.352;14.058;2022-07-30T10:56:11;24.90;20.30
326;DHT22;150;52.352;14.058;2022-07-30T10:58:56;24.80;20.00
326;DHT22;150;52.352;14.058;2022-07-30T11:01:25;24.90;20.60
326;DHT22;150;52.352;14.058;2022-07-30T11:04:16;25.00;20.50
326;DHT22;150;52.352;14.058;2022-07-30T11:06:42;25.00;20.70
326;DHT22;150;52.352;14.058;2022-07-30T11:09:33;25.20;20.00
326;DHT22;150;52.352;14.058;2022-07-30T11:12:00;25.10;19.70
326;DHT22;150;52.352;14.058;2022-07-30T11:14:57;25.30;20.20
326;DHT22;150;52.352;14.058;2022-07-30T11:17:25;25.40;19.90
326;DHT22;150;52.352;14.058;2022-07-30T11:20:15;25.40;20.40
326;DHT22;150;52.352;14.058;2022-07-30T11:22:45;25.40;19.70
326;DHT22;150;52.352;14.058;2022-07-30T11:25:38;25.40;19.80
326;DHT22;150;52.352;14.058;2022-07-30T11:28:05;25.50;19.60
326;DHT22;150;52.352;14.058;2022-07-30T11:30:33;25.60;19.10
326;DHT22;150;52.352;14.058;2022-07-30T11:33:25;25.70;19.10
326;DHT22;150;52.352;14.058;2022-07-30T11:36:13;25.60;19.30
326;DHT22;150;52.352;14.058;2022-07-30T11:38:56;25.70;19.40
326;DHT22;150;52.352;14.058;2022-07-30T11:41:23;25.70;19.40
326;DHT22;150;52.352;14.058;2022-07-30T11:46:55;25.90;19.20
326;DHT22;150;52.352;14.058;2022-07-30T11:49:23;25.90;18.90
326;DHT22;150;52.352;14.058;2022-07-30T11:51:50;25.90;18.40
326;DHT22;150;52.352;14.058;2022-07-30T11:54:16;25.80;18.80
326;DHT22;150;52.352;14.058;2022-07-30T11:56:48;25.90;19.00
326;DHT22;150;52.352;14.058;2022-07-30T11:59:14;25.80;19.20
326;DHT22;150;52.352;14.058;2022-07-30T12:01:41;25.80;19.80
326;DHT22;150;52.352;14.058;2022-07-30T12:04:08;25.80;18.70
326;DHT22;150;52.352;14.058;2022-07-30T12:06:43;25.90;19.50
326;DHT22;150;52.352;14.058;2022-07-30T12:09:10;26.00;19.60
326;DHT22;150;52.352;14.058;2022-07-30T12:11:38;26.20;19.80
326;DHT22;150;52.352;14.058;2022-07-30T12:14:04;26.30;19.10
326;DHT22;150;52.352;14.058;2022-07-30T12:16:32;26.30;18.70
326;DHT22;150;52.352;14.058;2022-07-30T12:19:02;26.50;19.80
326;DHT22;150;52.352;14.058;2022-07-30T12:21:29;26.60;18.80
326;DHT22;150;52.352;14.058;2022-07-30T12:23:59;26.60;17.90
326;DHT22;150;52.352;14.058;2022-07-30T12:26:27;26.70;18.10
326;DHT22;150;52.352;14.058;2022-07-30T12:28:55;26.70;18.20
326;DHT22;150;52.352;14.058;2022-07-30T12:31:21;26.80;18.70
326;DHT22;150;52.352;14.058;2022-07-30T12:33:48;26.90;18.00
326;DHT22;150;52.352;14.058;2022-07-30T12:36:26;26.80;17.90
326;DHT22;150;52.352;14.058;2022-07-30T12:38:54;26.90;16.90
326;DHT22;150;52.352;14.058;2022-07-30T12:41:39;26.60;17.40
326;DHT22;150;52.352;14.058;2022-07-30T12:44:09;26.50;18.00
326;DHT22;150;52.352;14.058;2022-07-30T12:46:38;26.40;17.80
326;DHT22;150;52.352;14.058;2022-07-30T12:49:06;26.50;18.60
326;DHT22;150;52.352;14.058;2022-07-30T12:51:35;26.50;17.90
326;DHT22;150;52.352;14.058;2022-07-30T12:54:14;26.50;17.90
326;DHT22;150;52.352;14.058;2022-07-30T12:56:55;26.50;17.90
326;DHT22;150;52.352;14.058;2022-07-30T12:59:23;26.50;18.00
326;DHT22;150;52.352;14.058;2022-07-30T13:01:51;26.50;17.60
326;DHT22;150;52.352;14.058;2022-07-30T13:04:18;26.50;18.40
326;DHT22;150;52.352;14.058;2022-07-30T13:07:04;26.40;18.20
326;DHT22;150;52.352;14.058;2022-07-30T13:09:30;26.40;17.50
326;DHT22;150;52.352;14.058;2022-07-30T13:11:59;26.40;19.00
326;DHT22;150;52.352;14.058;2022-07-30T13:14:25;26.30;17.40
326;DHT22;150;52.352;14.058;2022-07-30T13:16:53;26.30;17.20
326;DHT22;150;52.352;14.058;2022-07-30T13:19:20;26.30;17.60
326;DHT22;150;52.352;14.058;2022-07-30T13:21:47;26.10;17.60
326;DHT22;150;52.352;14.058;2022-07-30T13:24:14;26.10;17.70
326;DHT22;150;52.352;14.058;2022-07-30T13:26:41;26.20;18.60
326;DHT22;150;52.352;14.058;2022-07-30T13:29:09;26.20;18.20
326;DHT22;150;52.352;14.058;2022-07-30T13:31:38;26.20;18.30
326;DHT22;150;52.352;14.058;2022-07-30T13:34:04;26.00;18.30
326;DHT22;150;52.352;14.058;2022-07-30T13:36:32;26.00;17.90
326;DHT22;150;52.352;14.058;2022-07-30T13:38:59;26.10;19.00
326;DHT22;150;52.352;14.058;2022-07-30T13:41:25;26.20;18.20
326;DHT22;150;52.352;14.058;2022-07-30T13:43:52;26.20;19.00
326;DHT22;150;52.352;14.058;2022-07-30T13:46:20;26.00;18.60
326;DHT22;150;52.352;14.058;2022-07-30T13:48:47;26.00;18.90
326;DHT22;150;52.352;14.058;2022-07-30T13:51:14;26.00;19.00
326;DHT22;150;52.352;14.058;2022-07-30T13:53:40;26.10;18.00
326;DHT22;150;52.352;14.058;2022-07-30T13:56:07;26.10;19.00
326;DHT22;150;52.352;14.058;2022-07-30T13:58:34;26.30;18.40
326;DHT22;150;52.352;14.058;2022-07-30T14:01:00;26.30;18.20
326;DHT22;150;52.352;14.058;2022-07-30T14:03:28;26.10;18.20
326;DHT22;150;52.352;14.058;2022-07-30T14:05:55;26.20;18.60
326;DHT22;150;52.352;14.058;2022-07-30T14:08:22;26.30;18.00
326;DHT22;150;52.352;14.058;2022-07-30T14:10:49;26.40;18.30
326;DHT22;150;52.352;14.058;2022-07-30T14:13:16;26.40;17.70
326;DHT22;150;52.352;14.058;2022-07-30T14:15:43;26.20;18.20
326;DHT22;150;52.352;14.058;2022-07-30T14:18:09;26.10;17.70
326;DHT22;150;52.352;14.058;2022-07-30T14:20:37;26.10;18.30
326;DHT22;150;52.352;14.058;2022-07-30T14:23:04;25.90;17.50
326;DHT22;150;52.352;14.058;2022-07-30T14:25:30;25.80;17.90
326;DHT22;150;52.352;14.058;2022-07-30T14:27:57;25.70;18.20
326;DHT22;150;52.352;14.058;2022-07-30T14:30:24;25.70;18.60
326;DHT22;150;52.352;14.058;2022-07-30T14:32:50;25.80;18.60
326;DHT22;150;52.352;14.058;2022-07-30T14:35:17;25.90;18.90
326;DHT22;150;52.352;14.058;2022-07-30T14:37:45;26.00;19.20
326;DHT22;150;52.352;14.058;2022-07-30T14:40:12;26.10;19.40
326;DHT22;150;52.352;14.058;2022-07-30T14:42:40;26.20;18.90
326;DHT22;150;52.352;14.058;2022-07-30T14:45:08;26.40;18.90
326;DHT22;150;52.352;14.058;2022-07-30T14:47:35;26.40;18.40
326;DHT22;150;52.352;14.058;2022-07-30T14:50:02;26.50;18.20
326;DHT22;150;52.352;14.058;2022-07-30T14:52:28;26.50;17.80
326;DHT22;150;52.352;14.058;2022-07-30T14:54:56;26.60;18.40
326;DHT22;150;52.352;14.058;2022-07-30T14:57:23;26.60;17.80
326;DHT22;150;52.352;14.058;2022-07-30T14:59:49;26.60;17.10
326;DHT22;150;52.352;14.058;2022-07-30T15:02:16;26.60;17.60
326;DHT22;150;52.352;14.058;2022-07-30T15:04:43;26.30;17.80
326;DHT22;150;52.352;14.058;2022-07-30T15:07:11;26.20;17.70
326;DHT22;150;52.352;14.058;2022-07-30T15:09:38;26.20;17.80
326;DHT22;150;52.352;14.058;2022-07-30T15:12:07;26.40;17.70
326;DHT22;150;52.352;14.058;2022-07-30T15:14:34;26.50;17.10
326;DHT22;150;52.352;14.058;2022-07-30T15:17:01;26.50;17.20
326;DHT22;150;52.352;14.058;2022-07-30T15:19:27;26.50;16.70
326;DHT22;150;52.352;14.058;2022-07-30T15:21:54;26.60;16.80
326;DHT22;150;52.352;14.058;2022-07-30T15:24:21;26.50;16.70
326;DHT22;150;52.352;14.058;2022-07-30T15:26:47;26.50;16.40
326;DHT22;150;52.352;14.058;2022-07-30T15:29:15;26.40;16.60
326;DHT22;150;52.352;14.058;2022-07-30T15:31:42;26.50;16.70
326;DHT22;150;52.352;14.058;2022-07-30T15:34:08;26.40;16.60
326;DHT22;150;52.352;14.058;2022-07-30T15:36:37;26.40;16.40
326;DHT22;150;52.352;14.058;2022-07-30T15:39:04;26.60;16.50
326;DHT22;150;52.352;14.058;2022-07-30T15:41:31;26.60;16.70
326;DHT22;150;52.352;14.058;2022-07-30T15:43:57;26.50;15.80
326;DHT22;150;52.352;14.058;2022-07-30T15:46:25;26.50;16.00
326;DHT22;150;52.352;14.058;2022-07-30T15:48:52;26.50;16.40
326;DHT22;150;52.352;14.058;2022-07-30T15:51:18;26.60;16.50
326;DHT22;150;52.352;14.058;2022-07-30T15:53:45;26.70;16.20
326;DHT22;150;52.352;14.058;2022-07-30T15:56:12;26.80;15.60
326;DHT22;150;52.352;14.058;2022-07-30T15:58:40;26.80;16.90
326;DHT22;150;52.352;14.058;2022-07-30T16:01:07;26.70;16.10
326;DHT22;150;52.352;14.058;2022-07-30T16:03:35;26.50;14.90
326;DHT22;150;52.352;14.058;2022-07-30T16:06:02;26.30;15.70
326;DHT22;150;52.352;14.058;2022-07-30T16:08:28;26.20;16.60
326;DHT22;150;52.352;14.058;2022-07-30T16:10:55;26.10;16.50
326;DHT22;150;52.352;14.058;2022-07-30T16:13:22;26.00;16.40
326;DHT22;150;52.352;14.058;2022-07-30T16:15:48;25.80;16.30
326;DHT22;150;52.352;14.058;2022-07-30T16:18:15;25.80;16.40
326;DHT22;150;52.352;14.058;2022-07-30T16:20:43;25.80;16.30
326;DHT22;150;52.352;14.058;2022-07-30T16:23:09;25.90;16.40
326;DHT22;150;52.352;14.058;2022-07-30T16:25:36;25.90;16.40
326;DHT22;150;52.352;14.058;2022-07-30T16:28:03;25.80;16.30